sensor_id;sensor_type;location;lat;lon;timestamp;temperature;humidity
2260;DHT22;333;48.800;9.530;2023-06-04T00:02:16;14.90;99.60
2260;DHT22;333;48.800;9.530;2023-06-04T00:04:43;14.80;99.60
2260;DHT22;333;48.800;9.530;2023-06-04T00:07:11;14.70;99.60
2260;DHT22;333;48.800;9.530;2023-06-04T00:09:38;14.70;99.60
2260;DHT22;333;48.800;9.530;2023-06-04T00:12:06;14.60;99.60
2260;DHT22;333;48.800;9.530;2023-06-04T00:14:33;14.70;99.60
2260;DHT22;333;48.800;9.530;2023-06-04T00:17:00;14.60;99.60
2260;DHT22;333;48.800;9.530;2023-06-04T00:19:27;14.50;99.60
2260;DHT22;333;48.800;9.530;2023-06-04T00:21:55;14.60;99.60
2260;DHT22;333;48.800;9.530;2023-06-04T00:24:23;14.60;99.60
2260;DHT22;333;48.800;9.530;2023-06-04T00:26:50;14.50;99.60
2260;DHT22;333;48.800;9.530;2023-06-04T00:29:17;14.50;99.60
2260;DHT22;333;48.800;9.530;2023-06-04T00:31:44;14.50;99.60
2260;DHT22;333;48.800;9.530;2023-06-04T00:34:11;14.40;99.60
2260;DHT22;333;48.800;9.530;2023-06-04T00:36:39;14.40;99.60
2260;DHT22;333;48.800;9.530;2023-06-04T00:39:06;14.30;99.60
2260;DHT22;333;48.800;9.530;2023-06-04T00:41:34;14.40;99.60
2260;DHT22;333;48.800;9.530;2023-06-04T00:44:01;14.30;99.60
2260;DHT22;333;48.800;9.530;2023-06-04T00:46:32;14.30;99.60
2260;DHT22;333;48.800;9.530;2023-06-04T00:49:01;14.30;99.60
2260;DHT22;333;48.800;9.530;2023-06-04T00:51:30;14.20;99.60
2260;DHT22;333;48.800;9.530;2023-06-04T00:53:58;14.20;99.60
2260;DHT22;333;48.800;9.530;2023-06-04T00:56:27;14.20;99.60
2260;DHT22;333;48.800;9.530;2023-06-04T00:58:56;14.20;99.60
2260;DHT22;333;48.800;9.530;2023-06-04T01:01:31;14.20;99.60
2260;DHT22;333;48.800;9.530;2023-06-04T01:04:01;14.20;99.60
2260;DHT22;333;48.800;9.530;2023-06-04T01:06:35;14.20;99.60
2260;DHT22;333;48.800;9.530;2023-06-04T01:09:04;14.10;99.60
2260;DHT22;333;48.800;9.530;2023-06-04T01:11:33;14.20;99.60
2260;DHT22;333;48.800;9.530;2023-06-04T01:14:02;14.10;99.60
2260;DHT22;333;48.800;9.530;2023-06-04T01:16:32;14.00;99.60
2260;DHT22;333;48.800;9.530;2023-06-04T01:19:02;14.10;99.60
2260;DHT22;333;48.800;9.530;2023-06-04T01:21:34;13.90;99.60
2260;DHT22;333;48.800;9.530;2023-06-04T01:24:05;14.00;99.60
2260;DHT22;333;48.800;9.530;2023-06-04T01:26:32;14.00;99.60
2260;DHT22;333;48.800;9.530;2023-06-04T01:29:02;13.90;99.60
2260;DHT22;333;48.800;9.530;2023-06-04T01:31:30;13.70;99.60
2260;DHT22;333;48.800;9.530;2023-06-04T01:33:58;13.50;99.60
2260;DHT22;333;48.800;9.530;2023-06-04T01:36:25;13.50;99.60
2260;DHT22;333;48.800;9.530;2023-06-04T01:38:52;13.70;99.60
2260;DHT22;333;48.800;9.530;2023-06-04T01:41:19;13.60;99.60
2260;DHT22;333;48.800;9.530;2023-06-04T01:43:46;13.70;99.60
2260;DHT22;333;48.800;9.530;2023-06-04T01:46:15;13.70;99.60
2260;DHT22;333;48.800;9.530;2023-06-04T01:48:42;13.50;99.60
2260;DHT22;333;48.800;9.530;2023-06-04T01:51:09;13.50;99.60
2260;DHT22;333;48.800;9.530;2023-06-04T01:53:36;13.40;99.60
2260;DHT22;333;48.800;9.530;2023-06-04T01:56:03;13.30;99.60
2260;DHT22;333;48.800;9.530;2023-06-04T01:58:30;13.20;99.60
2260;DHT22;333;48.800;9.530;2023-06-04T02:00:57;13.30;99.60
2260;DHT22;333;48.800;9.530;2023-06-04T02:03:30;13.20;99.60
2260;DHT22;333;48.800;9.530;2023-06-04T02:06:02;13.10;99.60
2260;DHT22;333;48.800;9.530;2023-06-04T02:08:29;13.10;99.60
2260;DHT22;333;48.800;9.530;2023-06-04T02:10:58;13.00;99.60
2260;DHT22;333;48.800;9.530;2023-06-04T02:13:26;13.00;99.60
2260;DHT22;333;48.800;9.530;2023-06-04T02:15:52;12.90;99.60
2260;DHT22;333;48.800;9.530;2023-06-04T02:18:20;12.90;99.60
2260;DHT22;333;48.800;9.530;2023-06-04T02:20:49;12.80;99.60
2260;DHT22;333;48.800;9.530;2023-06-04T02:23:18;12.80;99.60
2260;DHT22;333;48.800;9.530;2023-06-04T02:25:45;12.80;99.60
2260;DHT22;333;48.800;9.530;2023-06-04T02:28:14;12.90;99.60
2260;DHT22;333;48.800;9.530;2023-06-04T02:30:41;12.70;99.60
2260;DHT22;333;48.800;9.530;2023-06-04T02:33:08;12.60;99.60
2260;DHT22;333;48.800;9.530;2023-06-04T02:35:36;12.50;99.60
2260;DHT22;333;48.800;9.530;2023-06-04T02:38:05;12.50;99.60
2260;DHT22;333;48.800;9.530;2023-06-04T02:40:32;12.50;99.60
2260;DHT22;333;48.800;9.530;2023-06-04T02:42:59;12.40;99.60
2260;DHT22;333;48.800;9.530;2023-06-04T02:45:26;12.40;99.60
2260;DHT22;333;48.800;9.530;2023-06-04T02:47:54;12.50;99.60
2260;DHT22;333;48.800;9.530;2023-06-04T02:50:21;12.40;99.60
2260;DHT22;333;48.800;9.530;2023-06-04T02:52:48;12.30;99.60
2260;DHT22;333;48.800;9.530;2023-06-04T02:55:17;12.30;99.60
2260;DHT22;333;48.800;9.530;2023-06-04T02:57:44;12.30;99.60
2260;DHT22;333;48.800;9.530;2023-06-04T03:00:12;12.30;99.60
2260;DHT22;333;48.800;9.530;2023-06-04T03:02:41;12.20;99.60
2260;DHT22;333;48.800;9.530;2023-06-04T03:05:09;12.20;99.60
2260;DHT22;333;48.800;9.530;2023-06-04T03:07:38;12.10;99.60
2260;DHT22;333;48.800;9.530;2023-06-04T03:10:07;12.20;99.60
2260;DHT22;333;48.800;9.530;2023-06-04T03:12:36;12.10;99.60
2260;DHT22;333;48.800;9.530;2023-06-04T03:15:04;12.10;99.60
2260;DHT22;333;48.800;9.530;2023-06-04T03:17:31;12.00;99.60
2260;DHT22;333;48.800;9.530;2023-06-04T03:19:58;12.10;99.60
2260;DHT22;333;48.800;9.530;2023-06-04T03:22:26;12.00;99.60
2260;DHT22;333;48.800;9.530;2023-06-04T03:24:53;12.00;99.60
2260;DHT22;333;48.800;9.530;2023-06-04T03:27:21;12.00;99.60
2260;DHT22;333;48.800;9.530;2023-06-04T03:29:49;11.90;99.60
2260;DHT22;333;48.800;9.530;2023-06-04T03:32:17;11.90;99.60
2260;DHT22;333;48.800;9.530;2023-06-04T03:34:44;11.90;99.60
2260;DHT22;333;48.800;9.530;2023-06-04T03:37:11;12.00;99.60
2260;DHT22;333;48.800;9.530;2023-06-04T03:39:38;11.90;99.60
2260;DHT22;333;48.800;9.530;2023-06-04T03:42:05;12.00;99.60
2260;DHT22;333;48.800;9.530;2023-06-04T03:44:32;12.10;99.60
2260;DHT22;333;48.800;9.530;2023-06-04T03:47:00;12.20;99.60
2260;DHT22;333;48.800;9.530;2023-06-04T03:49:27;12.20;99.60
2260;DHT22;333;48.800;9.530;2023-06-04T03:51:54;12.10;99.60
2260;DHT22;333;48.800;9.530;2023-06-04T03:54:24;12.00;99.60
2260;DHT22;333;48.800;9.530;2023-06-04T03:56:51;12.10;99.60
2260;DHT22;333;48.800;9.530;2023-06-04T03:59:18;12.20;99.60
2260;DHT22;333;48.800;9.530;2023-06-04T04:01:45;12.20;99.60
2260;DHT22;333;48.800;9.530;2023-06-04T04:04:13;12.10;99.60
2260;DHT22;333;48.800;9.530;2023-06-04T04:06:41;12.00;99.60
2260;DHT22;333;48.800;9.530;2023-06-04T04:09:08;12.00;99.60
2260;DHT22;333;48.800;9.530;2023-06-04T04:11:35;12.10;99.60
2260;DHT22;333;48.800;9.530;2023-06-04T04:14:02;12.10;99.60
2260;DHT22;333;48.800;9.530;2023-06-04T04:16:29;12.20;99.60
2260;DHT22;333;48.800;9.530;2023-06-04T04:18:56;12.50;99.60
2260;DHT22;333;48.800;9.530;2023-06-04T04:21:24;12.50;99.60
2260;DHT22;333;48.800;9.530;2023-06-04T04:23:52;12.50;99.60
2260;DHT22;333;48.800;9.530;2023-06-04T04:26:19;12.50;99.60
2260;DHT22;333;48.800;9.530;2023-06-04T04:28:46;12.50;99.60
2260;DHT22;333;48.800;9.530;2023-06-04T04:31:13;12.50;99.60
2260;DHT22;333;48.800;9.530;2023-06-04T04:33:40;12.60;99.60
2260;DHT22;333;48.800;9.530;2023-06-04T04:36:07;12.80;99.60
2260;DHT22;333;48.800;9.530;2023-06-04T04:38:41;13.00;99.60
2260;DHT22;333;48.800;9.530;2023-06-04T04:41:08;13.10;99.60
2260;DHT22;333;48.800;9.530;2023-06-04T04:43:36;13.30;99.60
2260;DHT22;333;48.800;9.530;2023-06-04T04:46:04;13.40;99.60
2260;DHT22;333;48.800;9.530;2023-06-04T04:48:32;13.40;99.60
2260;DHT22;333;48.800;9.530;2023-06-04T04:50:59;13.30;99.60
2260;DHT22;333;48.800;9.530;2023-06-04T04:53:26;13.30;99.60
2260;DHT22;333;48.800;9.530;2023-06-04T04:55:55;13.30;99.60
2260;DHT22;333;48.800;9.530;2023-06-04T04:58:22;13.30;99.60
2260;DHT22;333;48.800;9.530;2023-06-04T05:00:49;13.40;99.60
2260;DHT22;333;48.800;9.530;2023-06-04T05:03:16;13.70;99.60
2260;DHT22;333;48.800;9.530;2023-06-04T05:05:43;13.80;99.60
2260;DHT22;333;48.800;9.530;2023-06-04T05:08:11;14.00;99.60
2260;DHT22;333;48.800;9.530;2023-06-04T05:10:39;14.00;99.60
2260;DHT22;333;48.800;9.530;2023-06-04T05:13:07;14.10;99.60
2260;DHT22;333;48.800;9.530;2023-06-04T05:15:34;14.20;99.60
2260;DHT22;333;48.800;9.530;2023-06-04T05:18:01;14.30;99.60
2260;DHT22;333;48.800;9.530;2023-06-04T05:20:29;14.50;99.60
2260;DHT22;333;48.800;9.530;2023-06-04T05:22:56;14.70;99.60
2260;DHT22;333;48.800;9.530;2023-06-04T05:25:23;15.00;99.60
2260;DHT22;333;48.800;9.530;2023-06-04T05:27:52;15.10;99.60
2260;DHT22;333;48.800;9.530;2023-06-04T05:30:21;15.20;99.20
2260;DHT22;333;48.800;9.530;2023-06-04T05:32:48;15.20;98.60
2260;DHT22;333;48.800;9.530;2023-06-04T05:35:16;15.50;97.50
2260;DHT22;333;48.800;9.530;2023-06-04T05:37:43;15.80;95.10
2260;DHT22;333;48.800;9.530;2023-06-04T05:40:11;15.90;93.50
2260;DHT22;333;48.800;9.530;2023-06-04T05:42:40;16.10;92.60
2260;DHT22;333;48.800;9.530;2023-06-04T05:45:08;16.10;92.80
2260;DHT22;333;48.800;9.530;2023-06-04T05:47:37;16.30;91.40
2260;DHT22;333;48.800;9.530;2023-06-04T05:50:05;16.40;91.80
2260;DHT22;333;48.800;9.530;2023-06-04T05:52:32;16.50;89.60
2260;DHT22;333;48.800;9.530;2023-06-04T05:55:00;16.70;90.10
2260;DHT22;333;48.800;9.530;2023-06-04T05:57:26;16.80;88.30
2260;DHT22;333;48.800;9.530;2023-06-04T05:59:53;16.80;88.00
2260;DHT22;333;48.800;9.530;2023-06-04T06:02:21;16.90;89.30
2260;DHT22;333;48.800;9.530;2023-06-04T06:04:50;17.10;88.80
2260;DHT22;333;48.800;9.530;2023-06-04T06:07:17;17.10;88.40
2260;DHT22;333;48.800;9.530;2023-06-04T06:09:45;17.10;87.50
2260;DHT22;333;48.800;9.530;2023-06-04T06:12:12;17.00;88.50
2260;DHT22;333;48.800;9.530;2023-06-04T06:14:39;17.20;87.70
2260;DHT22;333;48.800;9.530;2023-06-04T06:17:06;17.10;87.10
2260;DHT22;333;48.800;9.530;2023-06-04T06:19:33;17.20;88.00
2260;DHT22;333;48.800;9.530;2023-06-04T06:22:01;17.40;87.60
2260;DHT22;333;48.800;9.530;2023-06-04T06:24:29;17.50;87.20
2260;DHT22;333;48.800;9.530;2023-06-04T06:26:56;17.60;88.70
2260;DHT22;333;48.800;9.530;2023-06-04T06:29:23;17.70;87.50
2260;DHT22;333;48.800;9.530;2023-06-04T06:31:50;17.50;87.70
2260;DHT22;333;48.800;9.530;2023-06-04T06:34:17;17.60;86.60
2260;DHT22;333;48.800;9.530;2023-06-04T06:36:44;17.60;87.20
2260;DHT22;333;48.800;9.530;2023-06-04T06:39:13;17.60;87.70
2260;DHT22;333;48.800;9.530;2023-06-04T06:41:40;17.70;87.30
2260;DHT22;333;48.800;9.530;2023-06-04T06:44:08;17.70;86.90
2260;DHT22;333;48.800;9.530;2023-06-04T06:46:35;17.80;88.10
2260;DHT22;333;48.800;9.530;2023-06-04T06:49:02;17.90;88.10
2260;DHT22;333;48.800;9.530;2023-06-04T06:51:29;17.90;87.20
2260;DHT22;333;48.800;9.530;2023-06-04T06:53:56;18.00;88.40
2260;DHT22;333;48.800;9.530;2023-06-04T06:56:24;18.20;87.10
2260;DHT22;333;48.800;9.530;2023-06-04T06:58:52;18.10;87.00
2260;DHT22;333;48.800;9.530;2023-06-04T07:01:19;18.20;87.20
2260;DHT22;333;48.800;9.530;2023-06-04T07:03:47;18.10;87.00
2260;DHT22;333;48.800;9.530;2023-06-04T07:06:13;18.10;87.50
2260;DHT22;333;48.800;9.530;2023-06-04T07:08:40;18.30;87.50
2260;DHT22;333;48.800;9.530;2023-06-04T07:11:08;18.40;88.00
2260;DHT22;333;48.800;9.530;2023-06-04T07:13:39;18.50;87.90
2260;DHT22;333;48.800;9.530;2023-06-04T07:16:06;18.60;87.20
2260;DHT22;333;48.800;9.530;2023-06-04T07:18:33;18.60;86.60
2260;DHT22;333;48.800;9.530;2023-06-04T07:21:00;18.50;86.60
2260;DHT22;333;48.800;9.530;2023-06-04T07:23:27;18.40;87.80
2260;DHT22;333;48.800;9.530;2023-06-04T07:25:55;18.40;87.90
2260;DHT22;333;48.800;9.530;2023-06-04T07:28:23;18.60;88.80
2260;DHT22;333;48.800;9.530;2023-06-04T07:30:51;19.00;86.90
2260;DHT22;333;48.800;9.530;2023-06-04T07:33:18;19.30;86.10
2260;DHT22;333;48.800;9.530;2023-06-04T07:35:45;19.20;84.80
2260;DHT22;333;48.800;9.530;2023-06-04T07:38:13;19.40;85.40
2260;DHT22;333;48.800;9.530;2023-06-04T07:40:40;19.60;86.80
2260;DHT22;333;48.800;9.530;2023-06-04T07:43:06;19.70;86.30
2260;DHT22;333;48.800;9.530;2023-06-04T07:45:34;20.00;84.50
2260;DHT22;333;48.800;9.530;2023-06-04T07:48:02;20.20;85.00
2260;DHT22;333;48.800;9.530;2023-06-04T07:50:30;20.30;84.40
2260;DHT22;333;48.800;9.530;2023-06-04T07:52:57;20.30;83.20
2260;DHT22;333;48.800;9.530;2023-06-04T07:55:24;20.30;83.10
2260;DHT22;333;48.800;9.530;2023-06-04T07:57:51;20.40;82.70
2260;DHT22;333;48.800;9.530;2023-06-04T08:00:18;20.30;83.30
2260;DHT22;333;48.800;9.530;2023-06-04T08:02:45;20.40;84.20
2260;DHT22;333;48.800;9.530;2023-06-04T08:05:15;20.50;82.90
2260;DHT22;333;48.800;9.530;2023-06-04T08:07:42;20.70;83.30
2260;DHT22;333;48.800;9.530;2023-06-04T08:10:10;20.90;83.20
2260;DHT22;333;48.800;9.530;2023-06-04T08:12:37;20.80;82.70
2260;DHT22;333;48.800;9.530;2023-06-04T08:15:05;21.00;84.00
2260;DHT22;333;48.800;9.530;2023-06-04T08:17:33;21.20;82.10
2260;DHT22;333;48.800;9.530;2023-06-04T08:20:00;21.40;82.40
2260;DHT22;333;48.800;9.530;2023-06-04T08:22:28;21.50;82.10
2260;DHT22;333;48.800;9.530;2023-06-04T08:24:55;21.70;81.70
2260;DHT22;333;48.800;9.530;2023-06-04T08:27:22;21.60;80.60
2260;DHT22;333;48.800;9.530;2023-06-04T08:29:49;21.50;79.90
2260;DHT22;333;48.800;9.530;2023-06-04T08:32:17;21.50;82.50
2260;DHT22;333;48.800;9.530;2023-06-04T08:34:44;21.50;80.20
2260;DHT22;333;48.800;9.530;2023-06-04T08:37:11;21.60;81.10
2260;DHT22;333;48.800;9.530;2023-06-04T08:39:40;21.80;81.70
2260;DHT22;333;48.800;9.530;2023-06-04T08:42:12;21.60;80.20
2260;DHT22;333;48.800;9.530;2023-06-04T08:44:45;21.80;80.60
2260;DHT22;333;48.800;9.530;2023-06-04T08:47:13;22.00;78.10
2260;DHT22;333;48.800;9.530;2023-06-04T08:49:44;22.10;79.80
2260;DHT22;333;48.800;9.530;2023-06-04T08:52:12;22.40;78.50
2260;DHT22;333;48.800;9.530;2023-06-04T08:54:41;22.40;79.80
2260;DHT22;333;48.800;9.530;2023-06-04T08:57:09;22.50;76.60
2260;DHT22;333;48.800;9.530;2023-06-04T08:59:36;22.70;77.10
2260;DHT22;333;48.800;9.530;2023-06-04T09:02:04;22.90;77.90
2260;DHT22;333;48.800;9.530;2023-06-04T09:04:32;22.90;77.00
2260;DHT22;333;48.800;9.530;2023-06-04T09:07:01;23.10;75.00
2260;DHT22;333;48.800;9.530;2023-06-04T09:09:29;23.10;74.30
2260;DHT22;333;48.800;9.530;2023-06-04T09:11:58;22.90;74.70
2260;DHT22;333;48.800;9.530;2023-06-04T09:14:28;23.10;75.00
2260;DHT22;333;48.800;9.530;2023-06-04T09:16:56;23.50;72.90
2260;DHT22;333;48.800;9.530;2023-06-04T09:19:24;23.80;77.50
2260;DHT22;333;48.800;9.530;2023-06-04T09:21:53;23.70;72.50
2260;DHT22;333;48.800;9.530;2023-06-04T09:24:21;23.90;71.90
2260;DHT22;333;48.800;9.530;2023-06-04T09:26:48;24.00;70.90
2260;DHT22;333;48.800;9.530;2023-06-04T09:29:17;24.30;73.40
2260;DHT22;333;48.800;9.530;2023-06-04T09:31:45;24.70;71.10
2260;DHT22;333;48.800;9.530;2023-06-04T09:34:13;24.60;70.70
2260;DHT22;333;48.800;9.530;2023-06-04T09:36:40;24.70;71.10
2260;DHT22;333;48.800;9.530;2023-06-04T09:39:15;25.20;69.00
2260;DHT22;333;48.800;9.530;2023-06-04T09:41:42;25.20;70.20
2260;DHT22;333;48.800;9.530;2023-06-04T09:44:09;25.30;68.60
2260;DHT22;333;48.800;9.530;2023-06-04T09:46:39;25.10;68.70
2260;DHT22;333;48.800;9.530;2023-06-04T09:49:06;25.20;70.80
2260;DHT22;333;48.800;9.530;2023-06-04T09:51:33;25.50;69.80
2260;DHT22;333;48.800;9.530;2023-06-04T09:54:03;25.70;67.40
2260;DHT22;333;48.800;9.530;2023-06-04T09:56:38;25.60;70.10
2260;DHT22;333;48.800;9.530;2023-06-04T09:59:06;25.70;68.60
2260;DHT22;333;48.800;9.530;2023-06-04T10:01:39;25.80;68.70
2260;DHT22;333;48.800;9.530;2023-06-04T10:04:08;25.90;67.60
2260;DHT22;333;48.800;9.530;2023-06-04T10:06:39;26.00;67.30
2260;DHT22;333;48.800;9.530;2023-06-04T10:09:07;26.00;65.50
2260;DHT22;333;48.800;9.530;2023-06-04T10:11:35;26.00;67.10
2260;DHT22;333;48.800;9.530;2023-06-04T10:14:06;26.10;67.30
2260;DHT22;333;48.800;9.530;2023-06-04T10:16:36;26.20;67.00
2260;DHT22;333;48.800;9.530;2023-06-04T10:19:07;26.00;66.70
2260;DHT22;333;48.800;9.530;2023-06-04T10:21:34;25.90;66.70
2260;DHT22;333;48.800;9.530;2023-06-04T10:24:03;26.20;68.20
2260;DHT22;333;48.800;9.530;2023-06-04T10:26:33;26.70;67.30
2260;DHT22;333;48.800;9.530;2023-06-04T10:29:01;26.80;66.80
2260;DHT22;333;48.800;9.530;2023-06-04T10:31:28;26.00;66.00
2260;DHT22;333;48.800;9.530;2023-06-04T10:33:56;26.00;67.30
2260;DHT22;333;48.800;9.530;2023-06-04T10:36:24;26.00;65.20
2260;DHT22;333;48.800;9.530;2023-06-04T10:38:53;25.40;65.90
2260;DHT22;333;48.800;9.530;2023-06-04T10:41:21;25.10;67.70
2260;DHT22;333;48.800;9.530;2023-06-04T10:43:49;25.00;66.70
2260;DHT22;333;48.800;9.530;2023-06-04T10:46:17;25.00;65.80
2260;DHT22;333;48.800;9.530;2023-06-04T10:48:48;25.40;66.10
2260;DHT22;333;48.800;9.530;2023-06-04T10:51:16;25.10;66.00
2260;DHT22;333;48.800;9.530;2023-06-04T10:53:45;25.50;65.60
2260;DHT22;333;48.800;9.530;2023-06-04T10:56:12;25.70;64.50
2260;DHT22;333;48.800;9.530;2023-06-04T10:58:38;25.60;65.80
2260;DHT22;333;48.800;9.530;2023-06-04T11:01:05;25.70;66.00
2260;DHT22;333;48.800;9.530;2023-06-04T11:03:37;25.20;65.20
2260;DHT22;333;48.800;9.530;2023-06-04T11:06:14;25.10;65.40
2260;DHT22;333;48.800;9.530;2023-06-04T11:08:42;24.80;65.50
2260;DHT22;333;48.800;9.530;2023-06-04T11:11:15;24.80;66.70
2260;DHT22;333;48.800;9.530;2023-06-04T11:13:43;24.90;65.70
2260;DHT22;333;48.800;9.530;2023-06-04T11:16:15;25.50;64.30
2260;DHT22;333;48.800;9.530;2023-06-04T11:18:43;25.90;65.70
2260;DHT22;333;48.800;9.530;2023-06-04T11:21:11;25.60;64.00
2260;DHT22;333;48.800;9.530;2023-06-04T11:23:40;25.20;65.10
2260;DHT22;333;48.800;9.530;2023-06-04T11:26:08;25.90;63.60
2260;DHT22;333;48.800;9.530;2023-06-04T11:28:37;26.50;65.40
2260;DHT22;333;48.800;9.530;2023-06-04T11:31:05;27.00;61.00
2260;DHT22;333;48.800;9.530;2023-06-04T11:33:42;27.10;62.60
2260;DHT22;333;48.800;9.530;2023-06-04T11:36:10;27.60;62.20
2260;DHT22;333;48.800;9.530;2023-06-04T11:38:37;27.70;62.90
2260;DHT22;333;48.800;9.530;2023-06-04T11:41:04;28.30;61.80
2260;DHT22;333;48.800;9.530;2023-06-04T11:43:32;28.00;61.40
2260;DHT22;333;48.800;9.530;2023-06-04T11:46:06;27.20;60.10
2260;DHT22;333;48.800;9.530;2023-06-04T11:48:34;27.00;60.00
2260;DHT22;333;48.800;9.530;2023-06-04T11:51:06;26.30;61.40
2260;DHT22;333;48.800;9.530;2023-06-04T11:53:36;26.20;61.00
2260;DHT22;333;48.800;9.530;2023-06-04T11:56:04;26.80;61.10
2260;DHT22;333;48.800;9.530;2023-06-04T11:58:32;26.30;62.10
2260;DHT22;333;48.800;9.530;2023-06-04T12:00:59;26.60;62.50
2260;DHT22;333;48.800;9.530;2023-06-04T12:03:45;26.10;61.50
2260;DHT22;333;48.800;9.530;2023-06-04T12:06:14;26.60;62.10
2260;DHT22;333;48.800;9.530;2023-06-04T12:08:49;27.00;63.00
2260;DHT22;333;48.800;9.530;2023-06-04T12:11:25;27.20;62.10
2260;DHT22;333;48.800;9.530;2023-06-04T12:13:53;26.90;59.30
2260;DHT22;333;48.800;9.530;2023-06-04T12:16:20;26.60;60.50
2260;DHT22;333;48.800;9.530;2023-06-04T12:18:49;25.60;61.90
2260;DHT22;333;48.800;9.530;2023-06-04T12:21:22;25.70;63.20
2260;DHT22;333;48.800;9.530;2023-06-04T12:23:53;26.30;62.00
2260;DHT22;333;48.800;9.530;2023-06-04T12:26:22;27.00;58.90
2260;DHT22;333;48.800;9.530;2023-06-04T12:29:00;27.80;59.80
2260;DHT22;333;48.800;9.530;2023-06-04T12:31:27;28.10;59.90
2260;DHT22;333;48.800;9.530;2023-06-04T12:33:59;26.80;60.80
2260;DHT22;333;48.800;9.530;2023-06-04T12:36:26;26.70;60.70
2260;DHT22;333;48.800;9.530;2023-06-04T12:38:58;27.10;61.70
2260;DHT22;333;48.800;9.530;2023-06-04T12:41:26;27.50;59.20
2260;DHT22;333;48.800;9.530;2023-06-04T12:43:54;28.00;59.30
2260;DHT22;333;48.800;9.530;2023-06-04T12:46:21;28.30;58.80
2260;DHT22;333;48.800;9.530;2023-06-04T12:48:49;28.00;59.00
2260;DHT22;333;48.800;9.530;2023-06-04T12:51:17;26.50;60.10
2260;DHT22;333;48.800;9.530;2023-06-04T12:53:44;26.60;63.80
2260;DHT22;333;48.800;9.530;2023-06-04T12:56:11;26.80;59.30
2260;DHT22;333;48.800;9.530;2023-06-04T12:58:38;26.20;60.80
2260;DHT22;333;48.800;9.530;2023-06-04T13:01:06;26.20;60.60
2260;DHT22;333;48.800;9.530;2023-06-04T13:03:35;26.00;60.20
2260;DHT22;333;48.800;9.530;2023-06-04T13:06:03;27.20;60.40
2260;DHT22;333;48.800;9.530;2023-06-04T13:08:32;27.30;59.40
2260;DHT22;333;48.800;9.530;2023-06-04T13:11:00;27.40;59.50
2260;DHT22;333;48.800;9.530;2023-06-04T13:13:27;26.70;58.90
2260;DHT22;333;48.800;9.530;2023-06-04T13:15:55;27.40;59.40
2260;DHT22;333;48.800;9.530;2023-06-04T13:18:22;27.40;59.80
2260;DHT22;333;48.800;9.530;2023-06-04T13:20:49;27.00;58.80
2260;DHT22;333;48.800;9.530;2023-06-04T13:23:16;27.20;61.30
2260;DHT22;333;48.800;9.530;2023-06-04T13:25:45;28.30;58.30
2260;DHT22;333;48.800;9.530;2023-06-04T13:28:12;28.60;57.00
2260;DHT22;333;48.800;9.530;2023-06-04T13:30:39;28.10;56.40
2260;DHT22;333;48.800;9.530;2023-06-04T13:33:06;28.50;57.40
2260;DHT22;333;48.800;9.530;2023-06-04T13:35:34;28.00;56.50
2260;DHT22;333;48.800;9.530;2023-06-04T13:38:03;28.30;56.20
2260;DHT22;333;48.800;9.530;2023-06-04T13:40:31;28.60;55.40
2260;DHT22;333;48.800;9.530;2023-06-04T13:42:59;28.30;55.30
2260;DHT22;333;48.800;9.530;2023-06-04T13:45:26;27.20;58.10
2260;DHT22;333;48.800;9.530;2023-06-04T13:47:53;27.40;58.60
2260;DHT22;333;48.800;9.530;2023-06-04T13:50:20;27.60;56.90
2260;DHT22;333;48.800;9.530;2023-06-04T13:52:47;27.80;58.20
2260;DHT22;333;48.800;9.530;2023-06-04T13:55:14;28.10;56.20
2260;DHT22;333;48.800;9.530;2023-06-04T13:57:41;27.60;56.30
2260;DHT22;333;48.800;9.530;2023-06-04T14:00:11;27.60;55.80
2260;DHT22;333;48.800;9.530;2023-06-04T14:02:39;28.00;56.00
2260;DHT22;333;48.800;9.530;2023-06-04T14:05:06;28.30;55.40
2260;DHT22;333;48.800;9.530;2023-06-04T14:07:34;28.90;54.30
2260;DHT22;333;48.800;9.530;2023-06-04T14:10:01;28.70;56.00
2260;DHT22;333;48.800;9.530;2023-06-04T14:12:28;28.30;56.80
2260;DHT22;333;48.800;9.530;2023-06-04T14:14:55;27.80;56.60
2260;DHT22;333;48.800;9.530;2023-06-04T14:17:23;27.60;57.00
2260;DHT22;333;48.800;9.530;2023-06-04T14:19:50;28.40;55.80
2260;DHT22;333;48.800;9.530;2023-06-04T14:22:17;29.10;54.70
2260;DHT22;333;48.800;9.530;2023-06-04T14:24:44;30.00;53.60
2260;DHT22;333;48.800;9.530;2023-06-04T14:27:11;30.20;53.00
2260;DHT22;333;48.800;9.530;2023-06-04T14:29:38;30.80;53.10
2260;DHT22;333;48.800;9.530;2023-06-04T14:32:05;31.30;51.40
2260;DHT22;333;48.800;9.530;2023-06-04T14:34:34;29.80;51.80
2260;DHT22;333;48.800;9.530;2023-06-04T14:37:01;29.40;52.90
2260;DHT22;333;48.800;9.530;2023-06-04T14:39:28;28.50;54.80
2260;DHT22;333;48.800;9.530;2023-06-04T14:41:55;29.40;54.30
2260;DHT22;333;48.800;9.530;2023-06-04T14:44:22;30.40;53.60
2260;DHT22;333;48.800;9.530;2023-06-04T14:46:50;30.60;51.50
2260;DHT22;333;48.800;9.530;2023-06-04T14:49:17;30.30;52.10
2260;DHT22;333;48.800;9.530;2023-06-04T14:51:46;28.60;54.40
2260;DHT22;333;48.800;9.530;2023-06-04T14:54:13;29.40;52.90
2260;DHT22;333;48.800;9.530;2023-06-04T14:56:40;30.20;53.40
2260;DHT22;333;48.800;9.530;2023-06-04T14:59:07;30.90;51.90
2260;DHT22;333;48.800;9.530;2023-06-04T15:01:37;30.00;52.20
2260;DHT22;333;48.800;9.530;2023-06-04T15:04:04;28.80;53.40
2260;DHT22;333;48.800;9.530;2023-06-04T15:06:31;28.80;54.50
2260;DHT22;333;48.800;9.530;2023-06-04T15:09:00;28.50;56.40
2260;DHT22;333;48.800;9.530;2023-06-04T15:11:27;29.80;53.20
2260;DHT22;333;48.800;9.530;2023-06-04T15:13:54;29.70;52.90
2260;DHT22;333;48.800;9.530;2023-06-04T15:16:21;29.50;52.20
2260;DHT22;333;48.800;9.530;2023-06-04T15:18:48;28.90;53.30
2260;DHT22;333;48.800;9.530;2023-06-04T15:21:15;29.20;53.80
2260;DHT22;333;48.800;9.530;2023-06-04T15:23:42;29.60;52.60
2260;DHT22;333;48.800;9.530;2023-06-04T15:26:15;29.80;52.50
2260;DHT22;333;48.800;9.530;2023-06-04T15:28:43;29.40;54.10
2260;DHT22;333;48.800;9.530;2023-06-04T15:31:10;29.30;53.90
2260;DHT22;333;48.800;9.530;2023-06-04T15:33:37;29.60;55.40
2260;DHT22;333;48.800;9.530;2023-06-04T15:36:05;29.80;55.30
2260;DHT22;333;48.800;9.530;2023-06-04T15:38:32;29.60;53.50
2260;DHT22;333;48.800;9.530;2023-06-04T15:40:59;28.90;54.30
2260;DHT22;333;48.800;9.530;2023-06-04T15:43:27;28.40;55.80
2260;DHT22;333;48.800;9.530;2023-06-04T15:45:54;27.80;57.00
2260;DHT22;333;48.800;9.530;2023-06-04T15:48:22;27.50;57.20
2260;DHT22;333;48.800;9.530;2023-06-04T15:50:51;27.10;57.80
2260;DHT22;333;48.800;9.530;2023-06-04T15:53:19;27.00;58.70
2260;DHT22;333;48.800;9.530;2023-06-04T15:55:46;27.10;58.00
2260;DHT22;333;48.800;9.530;2023-06-04T15:58:13;27.10;56.80
2260;DHT22;333;48.800;9.530;2023-06-04T16:00:41;27.20;57.30
2260;DHT22;333;48.800;9.530;2023-06-04T16:03:08;27.10;57.20
2260;DHT22;333;48.800;9.530;2023-06-04T16:05:35;26.50;57.60
2260;DHT22;333;48.800;9.530;2023-06-04T16:08:02;27.40;56.90
2260;DHT22;333;48.800;9.530;2023-06-04T16:10:30;27.70;54.70
2260;DHT22;333;48.800;9.530;2023-06-04T16:12:57;28.10;54.30
2260;DHT22;333;48.800;9.530;2023-06-04T16:15:24;28.50;55.70
2260;DHT22;333;48.800;9.530;2023-06-04T16:17:53;28.70;54.40
2260;DHT22;333;48.800;9.530;2023-06-04T16:20:20;28.50;55.50
2260;DHT22;333;48.800;9.530;2023-06-04T16:22:48;29.10;55.50